createdAt,value
2022-08-29T00:00:17.681Z,73.00
2022-08-29T00:02:48.319Z,73.00
2022-08-29T00:05:18.093Z,73.00
2022-08-29T00:07:46.507Z,73.00
2022-08-29T00:10:15.200Z,72.90
2022-08-29T00:12:43.721Z,72.80
2022-08-29T00:15:13.730Z,72.80
2022-08-29T00:17:42.151Z,72.90
2022-08-29T00:20:13.440Z,73.00
2022-08-29T00:22:44.346Z,73.00
2022-08-29T00:25:13.974Z,73.00
2022-08-29T00:27:44.628Z,73.10
2022-08-29T00:30:19.103Z,73.00
2022-08-29T00:32:47.323Z,73.10
2022-08-29T00:35:17.738Z,73.10
2022-08-29T00:37:47.620Z,73.20
2022-08-29T00:40:20.671Z,73.20
2022-08-29T00:42:49.108Z,73.20
2022-08-29T00:45:18.920Z,73.00
2022-08-29T00:47:51.594Z,73.00
2022-08-29T00:50:26.930Z,73.00
2022-08-29T00:52:58.280Z,73.00
2022-08-29T00:55:34.537Z,73.10
2022-08-29T00:58:11.773Z,73.10
2022-08-29T01:00:44.304Z,73.10
2022-08-29T01:03:13.881Z,73.00
2022-08-29T01:05:48.291Z,73.10
2022-08-29T01:08:20.800Z,73.20
2022-08-29T01:11:06.838Z,73.30
2022-08-29T01:13:41.750Z,73.30
2022-08-29T01:16:13.699Z,73.50
2022-08-29T01:18:45.373Z,73.50
2022-08-29T01:21:22.356Z,73.50
2022-08-29T01:24:00.474Z,73.70
2022-08-29T01:26:32.488Z,73.80
2022-08-29T01:29:02.365Z,74.00
2022-08-29T01:31:56.415Z,74.10
2022-08-29T01:34:30.992Z,74.10
2022-08-29T01:37:06.352Z,74.20
2022-08-29T01:39:37.962Z,74.20
2022-08-29T01:42:20.538Z,74.40
2022-08-29T01:44:57.992Z,74.50
2022-08-29T01:47:41.078Z,74.40
2022-08-29T01:50:16.235Z,74.40
2022-08-29T01:52:48.390Z,74.20
2022-08-29T01:55:17.050Z,74.10
2022-08-29T01:57:48.349Z,74.10
2022-08-29T02:00:27.563Z,74.20
2022-08-29T02:03:00.342Z,74.30
2022-08-29T02:05:33.155Z,74.30
2022-08-29T02:08:01.419Z,74.30
2022-08-29T02:10:30.447Z,74.30
2022-08-29T02:13:03.811Z,74.40
2022-08-29T02:15:33.641Z,74.40
2022-08-29T02:18:18.636Z,74.50
2022-08-29T02:20:56.194Z,74.60
2022-08-29T02:23:30.819Z,74.70
2022-08-29T02:26:01.268Z,74.80
2022-08-29T02:28:34.517Z,74.90
2022-08-29T02:31:08.103Z,74.90
2022-08-29T02:33:40.367Z,74.90
2022-08-29T02:36:10.509Z,74.70
2022-08-29T02:38:40.799Z,74.60
2022-08-29T02:41:27.411Z,74.50
2022-08-29T02:44:01.361Z,74.50
2022-08-29T02:46:35.728Z,74.40
2022-08-29T02:49:07.352Z,74.60
2022-08-29T02:51:44.596Z,74.60
2022-08-29T02:54:13.602Z,74.80
2022-08-29T02:56:57.866Z,74.90
2022-08-29T02:59:43.767Z,75.10
2022-08-29T03:05:03.419Z,75.20
2022-08-29T03:07:49.087Z,75.30
2022-08-29T03:10:22.099Z,75.40
2022-08-29T03:12:52.877Z,75.30
2022-08-29T03:15:27.870Z,75.50
2022-08-29T03:18:11.238Z,75.50
2022-08-29T03:20:42.376Z,75.40
2022-08-29T03:23:13.015Z,75.60
2022-08-29T03:25:43.509Z,75.50
2022-08-29T03:28:15.260Z,75.60
2022-08-29T03:30:54.598Z,75.60
2022-08-29T03:33:25.227Z,75.80
2022-08-29T03:35:55.953Z,75.80
2022-08-29T03:38:24.669Z,75.80
2022-08-29T03:41:06.654Z,75.90
2022-08-29T03:43:44.524Z,76.00
2022-08-29T03:46:25.376Z,76.20
2022-08-29T03:48:55.334Z,76.20
2022-08-29T03:51:29.549Z,76.20
2022-08-29T03:53:59.571Z,76.20
2022-08-29T03:56:29.747Z,76.20
2022-08-29T03:59:04.987Z,76.30
2022-08-29T04:01:39.107Z,76.30
2022-08-29T04:04:32.097Z,76.30
2022-08-29T04:07:04.520Z,76.30
2022-08-29T04:09:44.660Z,76.40
2022-08-29T04:12:17.267Z,76.40
2022-08-29T04:14:55.788Z,76.40
2022-08-29T04:17:28.243Z,76.40
2022-08-29T04:19:57.253Z,76.40
2022-08-29T04:22:26.215Z,76.50
2022-08-29T04:30:26.141Z,76.70
2022-08-29T04:32:56.442Z,76.80
2022-08-29T04:35:25.355Z,76.90
2022-08-29T04:37:56.215Z,76.90
2022-08-29T04:40:25.784Z,77.00
2022-08-29T04:43:06.607Z,77.10
2022-08-29T04:45:47.782Z,77.10
2022-08-29T04:48:23.904Z,77.20
2022-08-29T04:51:06.102Z,77.20
2022-08-29T04:53:39.294Z,77.20
2022-08-29T04:56:17.572Z,77.20
2022-08-29T04:58:49.824Z,77.10
2022-08-29T05:01:27.795Z,77.10
2022-08-29T05:04:10.246Z,77.00
2022-08-29T05:06:49.430Z,76.90
2022-08-29T05:09:25.252Z,76.80
2022-08-29T05:11:58.161Z,76.80
2022-08-29T05:14:35.047Z,76.80
2022-08-29T05:17:07.386Z,76.60
2022-08-29T05:19:45.190Z,76.60
2022-08-29T05:22:16.968Z,76.50
2022-08-29T05:24:47.954Z,76.40
2022-08-29T05:27:35.783Z,76.40
2022-08-29T05:30:06.759Z,76.30
2022-08-29T05:32:39.505Z,76.20
2022-08-29T05:35:15.407Z,76.10
2022-08-29T05:37:59.625Z,75.90
2022-08-29T05:40:29.307Z,75.90
2022-08-29T05:43:08.504Z,75.70
2022-08-29T05:45:38.881Z,75.70
2022-08-29T05:48:10.946Z,75.60
2022-08-29T05:50:49.078Z,75.60
2022-08-29T05:53:23.661Z,75.50
2022-08-29T05:55:54.250Z,75.40
2022-08-29T05:58:28.279Z,75.20
2022-08-29T06:01:00.233Z,75.00
2022-08-29T06:03:33.583Z,74.90
2022-08-29T06:06:04.406Z,74.80
2022-08-29T06:08:49.999Z,74.70
2022-08-29T06:11:22.509Z,74.60
2022-08-29T06:14:06.989Z,74.60
2022-08-29T06:16:37.475Z,74.50
2022-08-29T06:19:15.755Z,74.40
2022-08-29T06:21:52.566Z,74.50
2022-08-29T06:24:24.739Z,74.50
2022-08-29T06:26:55.117Z,74.30
2022-08-29T06:29:43.453Z,74.30
2022-08-29T06:32:19.973Z,74.20
2022-08-29T06:34:53.607Z,74.10
2022-08-29T06:37:23.246Z,73.90
2022-08-29T06:39:51.679Z,73.90
2022-08-29T06:42:28.603Z,73.60
2022-08-29T06:45:02.867Z,73.00
2022-08-29T06:47:38.561Z,72.50
2022-08-29T06:50:10.192Z,72.20
2022-08-29T06:52:47.078Z,71.90
2022-08-29T06:55:16.191Z,71.50
2022-08-29T06:57:57.112Z,71.20
2022-08-29T07:00:25.435Z,71.10
2022-08-29T07:02:58.174Z,70.80
2022-08-29T07:05:28.066Z,70.50
2022-08-29T07:08:08.829Z,70.40
2022-08-29T07:10:41.886Z,70.70
2022-08-29T07:13:17.560Z,70.60
2022-08-29T07:15:48.990Z,71.00
2022-08-29T07:18:18.193Z,71.00
2022-08-29T07:20:47.794Z,70.60
2022-08-29T07:23:28.340Z,70.70
2022-08-29T07:26:05.729Z,71.10
2022-08-29T07:28:40.000Z,71.20
2022-08-29T07:31:22.752Z,70.80
2022-08-29T07:34:04.209Z,70.50
2022-08-29T07:39:28.006Z,70.10
2022-08-29T07:41:57.624Z,70.10
2022-08-29T07:44:40.943Z,69.70
2022-08-29T07:47:16.575Z,69.70
2022-08-29T07:49:49.920Z,69.70
2022-08-29T07:52:20.980Z,69.70
2022-08-29T07:54:56.318Z,69.30
2022-08-29T07:57:29.558Z,69.40
2022-08-29T08:00:04.195Z,68.90
2022-08-29T08:02:39.909Z,69.00
2022-08-29T08:05:11.808Z,68.80
2022-08-29T08:07:40.450Z,68.60
2022-08-29T08:10:11.142Z,68.40
2022-08-29T08:12:39.512Z,68.60
2022-08-29T08:15:08.339Z,68.60
2022-08-29T08:17:38.890Z,68.20
2022-08-29T08:20:10.313Z,68.20
2022-08-29T08:22:38.657Z,67.90
2022-08-29T08:25:10.766Z,68.10
2022-08-29T08:27:43.330Z,68.00
2022-08-29T08:30:13.064Z,68.20
2022-08-29T08:32:46.106Z,68.00
2022-08-29T08:35:22.680Z,67.90
2022-08-29T08:38:07.386Z,67.80
2022-08-29T08:40:48.454Z,67.60
2022-08-29T08:43:26.844Z,67.20
2022-08-29T08:46:03.314Z,66.70
2022-08-29T08:48:39.014Z,66.60
2022-08-29T08:51:25.936Z,65.90
2022-08-29T08:53:59.109Z,66.00
2022-08-29T08:56:38.846Z,65.90
2022-08-29T08:59:19.144Z,66.00
2022-08-29T09:02:07.169Z,65.60
2022-08-29T09:07:48.670Z,65.00
2022-08-29T09:10:28.982Z,64.40
2022-08-29T09:13:04.419Z,64.10
2022-08-29T09:15:39.024Z,63.70
2022-08-29T09:18:13.596Z,63.90
2022-08-29T09:20:44.001Z,63.40
2022-08-29T09:23:19.636Z,63.30
2022-08-29T09:25:48.464Z,63.00
2022-08-29T09:28:18.214Z,63.20
2022-08-29T09:31:18.166Z,63.10
2022-08-29T09:33:49.992Z,62.90
2022-08-29T09:36:37.233Z,62.50
2022-08-29T09:39:18.274Z,62.70
2022-08-29T09:41:49.540Z,62.50
2022-08-29T09:44:26.007Z,62.40
2022-08-29T09:47:07.843Z,62.40
2022-08-29T09:49:38.563Z,62.10
2022-08-29T09:52:12.466Z,61.90
2022-08-29T09:54:41.447Z,61.60
2022-08-29T09:57:21.187Z,61.60
2022-08-29T10:00:07.032Z,61.50
2022-08-29T10:02:44.989Z,61.40
2022-08-29T10:05:33.857Z,61.30
2022-08-29T10:08:04.714Z,61.10
2022-08-29T10:10:36.292Z,61.00
2022-08-29T10:13:11.930Z,60.70
2022-08-29T10:15:50.906Z,60.60
2022-08-29T10:18:25.208Z,60.40
2022-08-29T10:21:07.790Z,59.80
2022-08-29T10:23:45.885Z,60.10
2022-08-29T10:26:30.860Z,59.80
2022-08-29T10:29:10.272Z,59.80
2022-08-29T10:31:47.184Z,59.60
2022-08-29T10:34:36.248Z,59.40
2022-08-29T10:37:15.615Z,59.00
2022-08-29T10:39:51.097Z,59.00
2022-08-29T10:42:26.554Z,57.80
2022-08-29T10:45:14.847Z,58.60
2022-08-29T10:47:52.246Z,58.40
2022-08-29T10:50:45.270Z,57.80
2022-08-29T10:53:20.068Z,58.30
2022-08-29T10:55:55.665Z,57.80
2022-08-29T10:58:35.292Z,57.90
2022-08-29T11:01:09.580Z,57.30
2022-08-29T11:03:45.280Z,57.20
2022-08-29T11:06:22.741Z,57.50
2022-08-29T11:08:57.786Z,56.90
2022-08-29T11:11:29.995Z,56.80
2022-08-29T11:14:05.617Z,56.70
2022-08-29T11:16:39.675Z,56.30
2022-08-29T11:19:21.612Z,55.80
2022-08-29T11:21:56.665Z,55.90
2022-08-29T11:24:35.062Z,55.40
2022-08-29T11:27:22.335Z,55.20
2022-08-29T11:30:02.264Z,54.80
2022-08-29T11:32:43.647Z,54.20
2022-08-29T11:35:22.038Z,54.00
2022-08-29T11:38:37.397Z,54.10
2022-08-29T11:41:27.492Z,54.00
2022-08-29T11:44:12.415Z,53.50
2022-08-29T11:46:43.940Z,52.60
2022-08-29T11:49:37.213Z,53.10
2022-08-29T11:52:22.326Z,52.60
2022-08-29T11:55:16.570Z,52.40
2022-08-29T11:57:52.454Z,52.30
2022-08-29T12:00:47.918Z,51.70
2022-08-29T12:03:53.218Z,51.90
2022-08-29T12:07:01.050Z,51.70
2022-08-29T12:10:05.151Z,51.60
2022-08-29T12:12:55.786Z,50.80
2022-08-29T12:15:59.444Z,50.60
2022-08-29T12:18:57.518Z,50.40
2022-08-29T12:22:05.018Z,50.00
2022-08-29T12:24:57.890Z,49.40
2022-08-29T12:28:06.274Z,49.50
2022-08-29T12:30:39.649Z,49.20
2022-08-29T12:33:26.185Z,49.00
2022-08-29T12:36:19.435Z,48.80
2022-08-29T12:39:04.686Z,47.70
2022-08-29T12:41:49.833Z,48.00
2022-08-29T12:44:22.288Z,47.80
2022-08-29T12:46:56.947Z,47.70
2022-08-29T12:49:26.975Z,47.30
2022-08-29T12:51:58.015Z,46.60
2022-08-29T12:54:34.752Z,46.30
2022-08-29T12:57:07.309Z,46.40
2022-08-29T12:59:36.162Z,46.60
2022-08-29T13:02:04.489Z,45.90
2022-08-29T13:04:33.967Z,46.10
2022-08-29T13:07:04.271Z,46.10
2022-08-29T13:09:35.055Z,45.60
2022-08-29T13:12:14.562Z,45.20
2022-08-29T13:14:56.273Z,45.50
2022-08-29T13:17:27.409Z,45.20
2022-08-29T13:20:32.877Z,44.60
2022-08-29T13:23:18.408Z,44.40
2022-08-29T13:26:00.312Z,44.00
2022-08-29T13:28:36.120Z,43.70
2022-08-29T13:31:23.234Z,43.20
2022-08-29T13:34:20.641Z,42.30
2022-08-29T13:37:06.330Z,42.50
2022-08-29T13:39:45.838Z,42.90
2022-08-29T13:42:23.277Z,42.40
2022-08-29T13:45:10.535Z,42.00
2022-08-29T13:47:56.551Z,41.70
2022-08-29T13:50:26.226Z,41.50
2022-08-29T13:52:55.666Z,41.10
2022-08-29T13:55:24.327Z,41.30
2022-08-29T13:57:54.708Z,40.60
2022-08-29T14:00:32.172Z,41.00
2022-08-29T14:03:05.416Z,41.00
2022-08-29T14:05:35.298Z,41.20
2022-08-29T14:08:04.627Z,41.00
2022-08-29T14:10:33.265Z,40.90
2022-08-29T14:13:01.586Z,40.80
2022-08-29T14:15:31.267Z,40.10
2022-08-29T14:18:00.051Z,40.00
2022-08-29T14:20:28.301Z,39.90
2022-08-29T14:22:56.541Z,40.00
2022-08-29T14:25:24.897Z,40.20
2022-08-29T14:27:53.635Z,39.90
2022-08-29T14:30:24.841Z,39.70
2022-08-29T14:32:54.650Z,39.40
2022-08-29T14:35:26.784Z,39.40
2022-08-29T14:38:00.497Z,38.80
2022-08-29T14:40:29.312Z,37.90
2022-08-29T14:42:58.085Z,37.70
2022-08-29T14:45:26.493Z,37.40
2022-08-29T14:47:56.418Z,37.00
2022-08-29T14:50:25.350Z,37.00
2022-08-29T14:52:54.185Z,36.90
2022-08-29T14:55:23.070Z,37.00
2022-08-29T14:57:51.423Z,37.30
2022-08-29T15:00:22.258Z,37.40
2022-08-29T15:02:50.983Z,37.30
2022-08-29T15:05:20.961Z,36.90
2022-08-29T15:07:49.159Z,36.60
2022-08-29T15:10:20.035Z,36.30
2022-08-29T15:12:48.222Z,36.10
2022-08-29T15:15:16.393Z,35.80
2022-08-29T15:17:44.823Z,36.10
2022-08-29T15:23:05.098Z,35.80
2022-08-29T15:25:33.356Z,35.80
2022-08-29T15:28:01.612Z,35.40
2022-08-29T15:30:29.823Z,35.10
2022-08-29T15:32:58.060Z,34.60
2022-08-29T15:35:26.254Z,34.40
2022-08-29T15:37:54.863Z,34.20
2022-08-29T15:40:24.959Z,34.50
2022-08-29T15:42:53.113Z,34.60
2022-08-29T15:45:22.740Z,33.90
2022-08-29T15:47:54.166Z,33.20
2022-08-29T15:50:23.725Z,31.90
2022-08-29T15:52:52.383Z,30.00
2022-08-29T15:55:21.511Z,29.10
2022-08-29T15:57:52.827Z,28.90
2022-08-29T16:00:29.622Z,28.80
2022-08-29T16:02:58.336Z,29.20
2022-08-29T16:05:26.843Z,29.80
2022-08-29T16:07:55.038Z,29.20
2022-08-29T16:10:23.324Z,26.30
2022-08-29T16:12:52.930Z,24.90
2022-08-29T16:15:21.326Z,25.20
2022-08-29T16:17:49.482Z,26.30
2022-08-29T16:20:17.963Z,26.80
2022-08-29T16:22:46.363Z,27.50
2022-08-29T16:25:15.047Z,27.70
2022-08-29T16:27:43.396Z,28.10
2022-08-29T16:30:13.924Z,30.10
2022-08-29T16:32:42.097Z,31.80
2022-08-29T16:35:11.194Z,33.30
2022-08-29T16:37:39.591Z,34.70
2022-08-29T16:40:08.908Z,35.80
2022-08-29T16:42:39.263Z,37.00
2022-08-29T16:45:09.843Z,37.50
2022-08-29T16:47:39.770Z,38.00
2022-08-29T16:50:12.160Z,38.40
2022-08-29T16:52:41.308Z,39.00
2022-08-29T16:55:10.433Z,39.40
2022-08-29T16:57:38.795Z,39.90
2022-08-29T17:00:10.533Z,40.40
2022-08-29T17:02:40.228Z,40.70
2022-08-29T17:05:09.014Z,41.00
2022-08-29T17:07:36.047Z,41.50
2022-08-29T17:10:04.182Z,41.90
2022-08-29T17:12:31.234Z,42.20
2022-08-29T17:14:58.288Z,42.40
2022-08-29T17:17:26.719Z,42.60
2022-08-29T17:19:56.255Z,42.90
2022-08-29T17:22:25.128Z,43.20
2022-08-29T17:24:53.461Z,43.30
2022-08-29T17:27:22.302Z,43.40
2022-08-29T17:29:52.180Z,43.30
2022-08-29T17:32:20.428Z,43.50
2022-08-29T17:34:49.029Z,43.60
2022-08-29T17:37:18.817Z,43.80
2022-08-29T17:39:46.972Z,43.90
2022-08-29T17:42:15.788Z,44.10
2022-08-29T17:44:46.107Z,44.60
2022-08-29T17:47:14.538Z,45.30
2022-08-29T17:49:42.989Z,46.10
2022-08-29T17:52:11.267Z,46.60
2022-08-29T17:54:41.090Z,47.20
2022-08-29T17:57:09.638Z,47.90
2022-08-29T17:59:38.553Z,48.60
2022-08-29T18:02:07.063Z,49.20
2022-08-29T18:04:35.269Z,49.70
2022-08-29T18:07:04.401Z,50.10
2022-08-29T18:09:32.630Z,50.70
2022-08-29T18:12:02.184Z,51.20
2022-08-29T18:14:30.529Z,51.60
2022-08-29T18:16:58.920Z,52.10
2022-08-29T18:19:27.374Z,52.50
2022-08-29T18:21:55.814Z,52.90
2022-08-29T18:24:24.565Z,53.40
2022-08-29T18:26:53.212Z,53.70
2022-08-29T18:29:23.076Z,54.00
2022-08-29T18:31:51.333Z,54.40
2022-08-29T18:34:19.963Z,54.60
2022-08-29T18:36:48.886Z,54.90
2022-08-29T18:39:18.980Z,55.30
2022-08-29T18:41:47.939Z,55.60
2022-08-29T18:44:16.196Z,56.00
2022-08-29T18:46:48.188Z,56.30
2022-08-29T18:49:16.919Z,56.60
2022-08-29T18:51:45.122Z,56.80
2022-08-29T18:54:16.315Z,56.90
2022-08-29T18:56:47.154Z,57.20
2022-08-29T18:59:15.438Z,57.40
2022-08-29T19:01:45.394Z,57.60
2022-08-29T19:04:13.739Z,57.80
2022-08-29T19:06:41.893Z,58.00
2022-08-29T19:09:10.167Z,58.30
2022-08-29T19:11:38.451Z,58.40
2022-08-29T19:14:06.916Z,58.80
2022-08-29T19:16:36.970Z,59.10
2022-08-29T19:19:07.432Z,59.10
2022-08-29T19:21:41.678Z,59.20
2022-08-29T19:24:10.155Z,59.40
2022-08-29T19:26:40.125Z,59.40
2022-08-29T19:29:12.724Z,59.60
2022-08-29T19:31:41.549Z,59.60
2022-08-29T19:34:11.455Z,59.70
2022-08-29T19:36:42.957Z,59.80
2022-08-29T19:39:15.832Z,59.90
2022-08-29T19:41:44.152Z,59.90
2022-08-29T19:44:12.380Z,60.00
2022-08-29T19:46:48.662Z,59.80
2022-08-29T19:49:19.070Z,59.80
2022-08-29T19:51:47.619Z,59.80
2022-08-29T19:54:16.360Z,59.90
2022-08-29T19:56:46.665Z,59.90
2022-08-29T19:59:15.668Z,59.90
2022-08-29T20:01:45.011Z,60.10
2022-08-29T20:04:13.536Z,59.80
2022-08-29T20:06:43.998Z,59.90
2022-08-29T20:09:13.622Z,60.10
2022-08-29T20:11:43.676Z,60.10
2022-08-29T20:14:14.050Z,60.20
2022-08-29T20:16:42.996Z,60.30
2022-08-29T20:19:12.643Z,60.80
2022-08-29T20:21:43.437Z,61.30
2022-08-29T20:24:15.495Z,61.40
2022-08-29T20:26:45.325Z,61.50
2022-08-29T20:29:14.052Z,61.70
2022-08-29T20:31:42.821Z,61.80
2022-08-29T20:34:11.326Z,62.10
2022-08-29T20:37:08.727Z,62.30
2022-08-29T20:39:38.633Z,62.70
2022-08-29T20:42:08.361Z,63.00
2022-08-29T20:44:41.756Z,63.20
2022-08-29T20:47:12.709Z,63.50
2022-08-29T20:49:42.805Z,63.70
2022-08-29T20:52:13.658Z,63.70
2022-08-29T20:54:46.075Z,63.80
2022-08-29T20:57:14.917Z,64.00
2022-08-29T20:59:44.210Z,64.10
2022-08-29T21:02:14.004Z,64.30
2022-08-29T21:04:59.867Z,64.40
2022-08-29T21:07:28.432Z,64.40
2022-08-29T21:09:58.069Z,64.50
2022-08-29T21:12:28.083Z,64.30
2022-08-29T21:14:56.291Z,64.40
2022-08-29T21:17:24.555Z,64.60
2022-08-29T21:19:52.746Z,64.80
2022-08-29T21:22:24.831Z,64.90
2022-08-29T21:24:55.235Z,65.00
2022-08-29T21:27:26.538Z,65.10
2022-08-29T21:29:56.789Z,65.20
2022-08-29T21:32:25.049Z,65.30
2022-08-29T21:34:53.264Z,65.50
2022-08-29T21:37:21.494Z,65.60
2022-08-29T21:39:50.017Z,65.60
2022-08-29T21:42:18.419Z,65.70
2022-08-29T21:44:48.011Z,65.80
2022-08-29T21:47:17.946Z,66.00
2022-08-29T21:49:48.458Z,66.00
2022-08-29T21:52:16.632Z,66.20
2022-08-29T21:54:44.820Z,66.40
2022-08-29T21:57:17.366Z,66.50
2022-08-29T21:59:47.538Z,66.60
2022-08-29T22:02:17.553Z,66.70
2022-08-29T22:04:45.806Z,66.80
2022-08-29T22:07:13.975Z,66.90
2022-08-29T22:09:43.170Z,67.10
2022-08-29T22:12:11.497Z,67.20
2022-08-29T22:14:56.861Z,67.30
2022-08-29T22:17:26.571Z,67.40
2022-08-29T22:19:54.742Z,67.40
2022-08-29T22:22:22.977Z,67.50
2022-08-29T22:24:51.160Z,67.60
2022-08-29T22:27:19.478Z,67.70
2022-08-29T22:29:47.621Z,67.80
2022-08-29T22:32:15.797Z,67.80
2022-08-29T22:34:45.354Z,67.90
2022-08-29T22:37:13.528Z,67.80
2022-08-29T22:39:41.650Z,67.80
2022-08-29T22:42:10.355Z,67.90
2022-08-29T22:45:02.224Z,68.00
2022-08-29T22:47:27.145Z,68.10
2022-08-29T22:49:56.752Z,68.20
2022-08-29T22:52:24.943Z,68.30
2022-08-29T22:54:53.502Z,68.30
2022-08-29T22:57:21.894Z,68.40
2022-08-29T22:59:50.210Z,68.40
2022-08-29T23:02:20.009Z,68.60
2022-08-29T23:04:49.653Z,68.50
2022-08-29T23:07:19.548Z,68.60
2022-08-29T23:09:48.088Z,68.60
2022-08-29T23:12:16.511Z,68.70
2022-08-29T23:14:46.516Z,68.70
2022-08-29T23:17:16.139Z,68.70
2022-08-29T23:19:45.247Z,68.70
2022-08-29T23:22:15.172Z,68.80
2022-08-29T23:24:57.720Z,68.90
2022-08-29T23:27:26.684Z,68.90
2022-08-29T23:29:54.835Z,68.90
2022-08-29T23:32:23.074Z,68.90
2022-08-29T23:34:51.251Z,69.10
2022-08-29T23:37:19.508Z,69.10
2022-08-29T23:39:49.034Z,69.10
2022-08-29T23:42:17.534Z,68.90
2022-08-29T23:44:45.813Z,68.90
2022-08-29T23:47:16.770Z,68.90
2022-08-29T23:49:45.025Z,68.90
2022-08-29T23:52:13.463Z,68.90
2022-08-29T23:54:41.746Z,68.90
2022-08-29T23:57:11.327Z,69.00
2022-08-29T23:59:56.834Z,69.00
